createdAt,value
2023-12-02T00:00:45.581Z,101175.97
2023-12-02T00:03:12.278Z,101170.69
2023-12-02T00:05:38.983Z,101162.84
2023-12-02T00:08:05.586Z,101164.53
2023-12-02T00:10:32.120Z,101156.84
2023-12-02T00:12:58.616Z,101154.19
2023-12-02T00:15:25.204Z,101158.53
2023-12-02T00:17:52.421Z,101160.50
2023-12-02T00:20:19.013Z,101152.00
2023-12-02T00:22:45.490Z,101158.09
2023-12-02T00:25:12.025Z,101151.00
2023-12-02T00:27:38.580Z,101160.50
2023-12-02T00:30:06.332Z,101155.31
2023-12-02T00:32:32.899Z,101149.13
2023-12-02T00:34:59.434Z,101151.81
2023-12-02T00:37:25.926Z,101147.47
2023-12-02T00:39:52.466Z,101150.06
2023-12-02T00:42:19.039Z,101143.25
2023-12-02T00:44:45.608Z,101152.75
2023-12-02T00:47:12.155Z,101157.28
2023-12-02T00:49:38.723Z,101158.00
2023-12-02T00:52:05.503Z,101162.22
2023-12-02T00:54:35.266Z,101159.56
2023-12-02T00:57:02.179Z,101156.16
2023-12-02T00:59:28.767Z,101159.44
2023-12-02T01:01:55.626Z,101158.72
2023-12-02T01:04:22.234Z,101161.41
2023-12-02T01:06:48.774Z,101162.34
2023-12-02T01:09:15.395Z,101157.78
2023-12-02T01:11:41.938Z,101157.06
2023-12-02T01:14:08.597Z,101161.31
2023-12-02T01:16:35.170Z,101155.41
2023-12-02T01:19:01.768Z,101156.16
2023-12-02T01:21:28.410Z,101157.91
2023-12-02T01:23:55.128Z,101153.44
2023-12-02T01:26:21.765Z,101160.38
2023-12-02T01:28:48.277Z,101163.69
2023-12-02T01:31:14.856Z,101166.16
2023-12-02T01:33:41.692Z,101171.22
2023-12-02T01:36:13.687Z,101175.75
2023-12-02T01:38:40.240Z,101167.28
2023-12-02T01:41:07.107Z,101166.38
2023-12-02T01:43:34.011Z,101172.34
2023-12-02T01:46:00.557Z,101178.34
2023-12-02T01:48:30.014Z,101185.44
2023-12-02T01:50:57.748Z,101187.22
2023-12-02T01:53:24.452Z,101179.56
2023-12-02T01:55:51.375Z,101184.00
2023-12-02T01:58:17.930Z,101183.59
2023-12-02T02:00:44.633Z,101176.22
2023-12-02T02:03:11.129Z,101179.94
2023-12-02T02:05:37.907Z,101171.56
2023-12-02T02:08:04.442Z,101176.16
2023-12-02T02:10:30.926Z,101180.63
2023-12-02T02:12:57.488Z,101179.97
2023-12-02T02:15:24.174Z,101186.97
2023-12-02T02:17:50.745Z,101178.59
2023-12-02T02:20:17.288Z,101179.53
2023-12-02T02:22:43.797Z,101182.31
2023-12-02T02:25:10.616Z,101185.91
2023-12-02T02:27:37.183Z,101187.88
2023-12-02T02:30:04.171Z,101188.06
2023-12-02T02:32:30.751Z,101189.81
2023-12-02T02:34:57.397Z,101188.13
2023-12-02T02:37:24.183Z,101181.50
2023-12-02T02:39:50.683Z,101181.69
2023-12-02T02:42:17.341Z,101187.50
2023-12-02T02:44:44.115Z,101194.53
2023-12-02T02:47:10.595Z,101186.78
2023-12-02T02:49:37.126Z,101192.88
2023-12-02T02:52:04.348Z,101188.91
2023-12-02T02:54:30.855Z,101187.97
2023-12-02T02:56:57.562Z,101191.50
2023-12-02T02:59:24.112Z,101194.00
2023-12-02T03:01:50.741Z,101197.41
2023-12-02T03:04:17.258Z,101197.94
2023-12-02T03:06:43.857Z,101198.47
2023-12-02T03:09:12.696Z,101194.06
2023-12-02T03:11:39.491Z,101193.75
2023-12-02T03:14:07.024Z,101191.09
2023-12-02T03:16:34.008Z,101189.25
2023-12-02T03:19:01.898Z,101185.66
2023-12-02T03:21:28.733Z,101198.25
2023-12-02T03:23:55.350Z,101194.66
2023-12-02T03:26:23.719Z,101189.41
2023-12-02T03:28:50.292Z,101185.81
2023-12-02T03:31:16.842Z,101190.16
2023-12-02T03:33:43.411Z,101182.41
2023-12-02T03:36:10.490Z,101179.81
2023-12-02T03:38:37.118Z,101175.38
2023-12-02T03:41:03.755Z,101181.28
2023-12-02T03:43:30.278Z,101176.13
2023-12-02T03:45:56.961Z,101164.69
2023-12-02T03:48:23.571Z,101172.31
2023-12-02T03:50:50.571Z,101169.66
2023-12-02T03:53:17.084Z,101173.81
2023-12-02T03:55:43.659Z,101178.84
2023-12-02T03:58:10.372Z,101171.00
2023-12-02T04:00:37.111Z,101164.00
2023-12-02T04:03:04.168Z,101167.53
2023-12-02T04:05:30.692Z,101166.47
2023-12-02T04:07:57.326Z,101166.47
2023-12-02T04:10:23.841Z,101175.97
2023-12-02T04:12:50.324Z,101178.47
2023-12-02T04:15:16.968Z,101179.31
2023-12-02T04:17:43.589Z,101186.41
2023-12-02T04:20:12.370Z,101190.81
2023-12-02T04:22:40.178Z,101188.34
2023-12-02T04:25:07.320Z,101188.16
2023-12-02T04:27:33.998Z,101200.25
2023-12-02T04:30:00.855Z,101194.16
2023-12-02T04:32:27.896Z,101198.31
2023-12-02T04:34:54.656Z,101201.72
2023-12-02T04:37:24.231Z,101220.47
2023-12-02T04:39:52.520Z,101222.97
2023-12-02T04:42:19.292Z,101224.63
2023-12-02T04:44:46.296Z,101231.38
2023-12-02T04:47:13.170Z,101233.00
2023-12-02T04:49:40.807Z,101233.72
2023-12-02T04:52:07.289Z,101239.81
2023-12-02T04:54:36.371Z,101240.75
2023-12-02T04:57:03.064Z,101240.56
2023-12-02T04:59:29.593Z,101237.16
2023-12-02T05:01:56.548Z,101238.81
2023-12-02T05:04:23.137Z,101238.00
2023-12-02T05:06:51.595Z,101243.16
2023-12-02T05:09:18.109Z,101241.47
2023-12-02T05:11:44.662Z,101247.69
2023-12-02T05:14:11.143Z,101250.25
2023-12-02T05:16:42.411Z,101249.44
2023-12-02T05:19:09.126Z,101252.91
2023-12-02T05:21:38.482Z,101256.63
2023-12-02T05:24:05.154Z,101253.50
2023-12-02T05:26:32.884Z,101259.59
2023-12-02T05:29:02.216Z,101253.69
2023-12-02T05:31:28.789Z,101255.63
2023-12-02T05:33:56.485Z,101255.00
2023-12-02T05:36:23.218Z,101259.63
2023-12-02T05:38:49.769Z,101256.59
2023-12-02T05:41:16.416Z,101255.13
2023-12-02T05:43:42.951Z,101253.66
2023-12-02T05:46:15.651Z,101252.25
2023-12-02T05:48:42.308Z,101245.63
2023-12-02T05:51:09.045Z,101256.25
2023-12-02T05:53:35.645Z,101250.50
2023-12-02T05:56:02.267Z,101271.41
2023-12-02T05:58:28.999Z,101268.19
2023-12-02T06:00:55.472Z,101271.41
2023-12-02T06:03:22.180Z,101275.19
2023-12-02T06:05:48.867Z,101282.81
2023-12-02T06:08:15.390Z,101279.13
2023-12-02T06:10:41.939Z,101272.44
2023-12-02T06:13:08.480Z,101271.97
2023-12-02T06:15:35.004Z,101272.31
2023-12-02T06:18:02.043Z,101263.00
2023-12-02T06:20:28.607Z,101262.47
2023-12-02T06:22:55.166Z,101271.66
2023-12-02T06:25:22.034Z,101279.31
2023-12-02T06:27:48.519Z,101280.97
2023-12-02T06:30:18.989Z,101282.72
2023-12-02T06:32:45.906Z,101293.94
2023-12-02T06:35:13.365Z,101294.03
2023-12-02T06:37:39.977Z,101300.34
2023-12-02T06:40:07.220Z,101298.16
2023-12-02T06:42:33.981Z,101304.31
2023-12-02T06:45:00.601Z,101309.56
2023-12-02T06:47:27.136Z,101311.84
2023-12-02T06:49:53.653Z,101322.81
2023-12-02T06:52:20.207Z,101315.75
2023-12-02T06:55:31.183Z,101332.69
2023-12-02T06:57:33.342Z,101332.59
2023-12-02T07:00:00.230Z,101329.84
2023-12-02T07:02:27.594Z,101340.97
2023-12-02T07:04:54.166Z,101343.47
2023-12-02T07:07:20.695Z,101345.03
2023-12-02T07:09:47.282Z,101345.88
2023-12-02T07:12:13.865Z,101349.28
2023-12-02T07:14:40.430Z,101357.84
2023-12-02T07:17:06.865Z,101361.53
2023-12-02T07:19:33.416Z,101358.28
2023-12-02T07:22:00.024Z,101358.28
2023-12-02T07:24:26.548Z,101363.63
2023-12-02T07:26:53.545Z,101362.78
2023-12-02T07:29:20.025Z,101361.03
2023-12-02T07:31:46.859Z,101373.91
2023-12-02T07:34:13.582Z,101374.03
2023-12-02T07:36:40.115Z,101369.03
2023-12-02T07:39:06.668Z,101373.44
2023-12-02T07:41:33.238Z,101377.66
2023-12-02T07:43:59.823Z,101376.59
2023-12-02T07:46:27.826Z,101380.56
2023-12-02T07:48:54.942Z,101381.22
2023-12-02T07:51:21.472Z,101382.69
2023-12-02T07:53:48.531Z,101385.28
2023-12-02T07:56:17.665Z,101381.75
2023-12-02T07:58:44.222Z,101390.09
2023-12-02T08:01:10.776Z,101388.22
2023-12-02T08:03:37.366Z,101390.63
2023-12-02T08:06:04.083Z,101404.34
2023-12-02T08:08:30.903Z,101409.16
2023-12-02T08:10:57.566Z,101415.75
2023-12-02T08:13:24.401Z,101416.47
2023-12-02T08:15:51.166Z,101419.69
2023-12-02T08:18:19.830Z,101420.34
2023-12-02T08:20:47.887Z,101421.66
2023-12-02T08:23:14.484Z,101430.69
2023-12-02T08:25:41.023Z,101428.59
2023-12-02T08:28:07.621Z,101434.13
2023-12-02T08:30:34.191Z,101431.19
2023-12-02T08:33:00.892Z,101427.59
2023-12-02T08:35:27.405Z,101435.16
2023-12-02T08:37:53.978Z,101423.06
2023-12-02T08:40:21.149Z,101420.31
2023-12-02T08:42:47.687Z,101429.06
2023-12-02T08:45:14.326Z,101420.31
2023-12-02T08:47:41.671Z,101439.22
2023-12-02T08:50:08.486Z,101436.34
2023-12-02T08:52:35.034Z,101444.84
2023-12-02T08:55:01.579Z,101444.75
2023-12-02T08:57:28.181Z,101450.66
2023-12-02T08:59:55.450Z,101447.06
2023-12-02T09:02:22.102Z,101445.97
2023-12-02T09:04:48.739Z,101444.84
2023-12-02T09:07:15.290Z,101445.50
2023-12-02T09:09:43.392Z,101448.72
2023-12-02T09:12:10.058Z,101445.03
2023-12-02T09:14:36.619Z,101449.19
2023-12-02T09:17:05.271Z,101443.56
2023-12-02T09:19:54.852Z,101444.91
2023-12-02T09:22:47.360Z,101447.31
2023-12-02T09:25:32.757Z,101457.56
2023-12-02T09:28:13.114Z,101461.69
2023-12-02T09:31:07.009Z,101468.34
2023-12-02T09:33:36.446Z,101469.72
2023-12-02T09:36:04.965Z,101465.84
2023-12-02T09:38:33.803Z,101472.38
2023-12-02T09:41:10.463Z,101472.94
2023-12-02T09:43:54.995Z,101474.28
2023-12-02T09:46:32.497Z,101469.47
2023-12-02T09:49:22.362Z,101478.22
2023-12-02T09:52:07.488Z,101474.22
2023-12-02T09:55:01.777Z,101483.09
2023-12-02T09:57:46.823Z,101471.97
2023-12-02T10:01:10.896Z,101469.94
2023-12-02T10:03:55.421Z,101478.53
2023-12-02T10:07:00.233Z,101474.19
2023-12-02T10:09:51.209Z,101477.06
2023-12-02T10:12:34.063Z,101475.44
2023-12-02T10:15:04.217Z,101474.72
2023-12-02T10:17:35.160Z,101486.09
2023-12-02T10:20:10.751Z,101485.28
2023-12-02T10:22:46.093Z,101481.22
2023-12-02T10:25:30.770Z,101477.16
2023-12-02T10:28:03.133Z,101485.22
2023-12-02T10:30:34.065Z,101478.59
2023-12-02T10:33:11.817Z,101475.38
2023-12-02T10:35:47.261Z,101473.53
2023-12-02T10:38:16.791Z,101467.94
2023-12-02T10:40:53.914Z,101471.97
2023-12-02T10:43:39.291Z,101473.34
2023-12-02T10:46:07.311Z,101474.72
2023-12-02T10:48:38.269Z,101474.41
2023-12-02T10:51:07.593Z,101468.91
2023-12-02T10:53:37.097Z,101466.63
2023-12-02T10:56:13.252Z,101461.75
2023-12-02T10:58:44.268Z,101469.31
2023-12-02T11:01:11.791Z,101467.34
2023-12-02T11:03:44.405Z,101457.72
2023-12-02T11:06:41.021Z,101465.59
2023-12-02T11:09:50.372Z,101457.09
2023-12-02T11:12:23.531Z,101454.50
2023-12-02T11:15:06.989Z,101463.00
2023-12-02T11:18:01.977Z,101460.81
2023-12-02T11:20:44.338Z,101452.72
2023-12-02T11:23:22.705Z,101457.09
2023-12-02T11:26:02.121Z,101450.13
2023-12-02T11:28:46.729Z,101453.56
2023-12-02T11:31:33.865Z,101451.91
2023-12-02T11:34:09.455Z,101458.84
2023-12-02T11:36:54.968Z,101464.75
2023-12-02T11:39:46.567Z,101467.66
2023-12-02T11:42:20.015Z,101474.72
2023-12-02T11:45:06.940Z,101458.94
2023-12-02T11:47:43.326Z,101461.53
2023-12-02T11:50:31.485Z,101462.03
2023-12-02T11:53:29.090Z,101465.00
2023-12-02T11:56:12.131Z,101469.88
2023-12-02T11:59:16.932Z,101464.88
2023-12-02T12:01:43.400Z,101472.94
2023-12-02T12:04:21.831Z,101465.56
2023-12-02T12:07:22.573Z,101468.41
2023-12-02T12:10:04.803Z,101482.34
2023-12-02T12:12:34.590Z,101478.00
2023-12-02T12:15:03.637Z,101489.53
2023-12-02T12:17:30.732Z,101487.75
2023-12-02T12:20:00.508Z,101487.66
2023-12-02T12:22:29.952Z,101490.97
2023-12-02T12:24:56.482Z,101487.00
2023-12-02T12:27:23.077Z,101490.59
2023-12-02T12:29:54.568Z,101490.31
2023-12-02T12:32:21.420Z,101482.50
2023-12-02T12:34:47.981Z,101482.38
2023-12-02T12:37:18.177Z,101484.75
2023-12-02T12:39:45.825Z,101480.50
2023-12-02T12:42:13.307Z,101483.59
2023-12-02T12:44:43.059Z,101478.22
2023-12-02T12:47:10.712Z,101476.47
2023-12-02T12:49:42.395Z,101474.50
2023-12-02T12:52:10.832Z,101464.84
2023-12-02T12:54:48.331Z,101471.09
2023-12-02T12:57:37.067Z,101477.81
2023-12-02T13:00:07.769Z,101490.38
2023-12-02T13:02:43.442Z,101491.09
2023-12-02T13:05:15.677Z,101482.00
2023-12-02T13:07:53.568Z,101484.94
2023-12-02T13:10:21.001Z,101488.50
2023-12-02T13:12:49.709Z,101487.31
2023-12-02T13:15:20.883Z,101494.41
2023-12-02T13:17:49.038Z,101497.63
2023-12-02T13:20:17.651Z,101499.63
2023-12-02T13:22:47.469Z,101500.91
2023-12-02T13:25:22.830Z,101499.03
2023-12-02T13:28:07.020Z,101509.19
2023-12-02T13:30:36.953Z,101506.44
2023-12-02T13:33:13.941Z,101506.91
2023-12-02T13:35:44.697Z,101504.56
2023-12-02T13:38:27.008Z,101505.72
2023-12-02T13:41:26.021Z,101504.22
2023-12-02T13:43:53.980Z,101504.59
2023-12-02T13:46:53.721Z,101505.88
2023-12-02T13:49:24.641Z,101503.50
2023-12-02T13:52:04.190Z,101510.03
2023-12-02T13:55:01.987Z,101513.22
2023-12-02T13:57:42.270Z,101517.06
2023-12-02T14:00:12.280Z,101513.19
2023-12-02T14:02:57.326Z,101522.97
2023-12-02T14:05:52.272Z,101524.38
2023-12-02T14:08:21.473Z,101529.94
2023-12-02T14:10:50.612Z,101534.75
2023-12-02T14:13:20.716Z,101526.69
2023-12-02T14:16:18.497Z,101525.50
2023-12-02T14:19:30.853Z,101531.00
2023-12-02T14:22:17.609Z,101537.38
2023-12-02T14:24:57.653Z,101540.31
2023-12-02T14:27:37.624Z,101536.88
2023-12-02T14:30:32.962Z,101540.66
2023-12-02T14:33:37.213Z,101545.22
2023-12-02T14:36:12.878Z,101551.34
2023-12-02T14:39:06.938Z,101558.41
2023-12-02T14:41:49.764Z,101550.63
2023-12-02T14:44:29.742Z,101550.63
2023-12-02T14:47:07.488Z,101555.72
2023-12-02T14:49:40.202Z,101556.66
2023-12-02T14:52:08.123Z,101558.41
2023-12-02T14:54:36.588Z,101555.09
2023-12-02T14:57:23.549Z,101565.59
2023-12-02T15:00:00.425Z,101571.00
2023-12-02T15:02:36.809Z,101574.97
2023-12-02T15:05:08.417Z,101571.88
2023-12-02T15:07:54.224Z,101581.03
2023-12-02T15:10:33.207Z,101581.47
2023-12-02T15:13:06.948Z,101596.63
2023-12-02T15:15:42.418Z,101600.38
2023-12-02T15:18:16.752Z,101600.69
2023-12-02T15:20:44.236Z,101596.66
2023-12-02T15:23:17.024Z,101600.28
2023-12-02T15:25:48.032Z,101610.78
2023-12-02T15:28:19.522Z,101604.78
2023-12-02T15:30:46.558Z,101608.41
2023-12-02T15:33:17.298Z,101600.81
2023-12-02T15:35:45.055Z,101605.19
2023-12-02T15:38:14.466Z,101607.97
2023-12-02T15:40:41.103Z,101609.88
2023-12-02T15:43:09.220Z,101620.31
2023-12-02T15:45:35.952Z,101623.13
2023-12-02T15:48:02.649Z,101629.44
2023-12-02T15:50:29.259Z,101632.16
2023-12-02T15:52:56.633Z,101634.75
2023-12-02T15:55:23.334Z,101632.25
2023-12-02T15:57:50.134Z,101640.03
2023-12-02T16:00:16.924Z,101643.56
2023-12-02T16:02:44.519Z,101642.72
2023-12-02T16:05:14.642Z,101643.47
2023-12-02T16:07:42.024Z,101650.31
2023-12-02T16:10:17.992Z,101647.59
2023-12-02T16:12:46.315Z,101660.47
2023-12-02T16:15:13.146Z,101661.31
2023-12-02T16:17:40.201Z,101671.56
2023-12-02T16:20:07.658Z,101674.06
2023-12-02T16:22:35.290Z,101677.38
2023-12-02T16:25:02.877Z,101681.53
2023-12-02T16:27:29.554Z,101678.94
2023-12-02T16:29:58.950Z,101671.97
2023-12-02T16:32:26.409Z,101673.63
2023-12-02T16:34:53.192Z,101674.44
2023-12-02T16:37:20.629Z,101682.97
2023-12-02T16:39:50.673Z,101687.34
2023-12-02T16:42:18.224Z,101696.75
2023-12-02T16:44:44.893Z,101693.34
2023-12-02T16:47:46.647Z,101694.16
2023-12-02T16:50:17.181Z,101694.16
2023-12-02T16:52:52.286Z,101695.75
2023-12-02T16:55:18.970Z,101696.69
2023-12-02T16:57:52.170Z,101688.91
2023-12-02T17:00:20.079Z,101697.59
2023-12-02T17:02:48.642Z,101697.78
2023-12-02T17:05:27.414Z,101696.25
2023-12-02T17:08:07.554Z,101702.47
2023-12-02T17:10:42.951Z,101696.66
2023-12-02T17:13:37.437Z,101709.72
2023-12-02T17:16:36.035Z,101708.06
2023-12-02T17:19:10.215Z,101712.41
2023-12-02T17:21:48.188Z,101720.09
2023-12-02T17:24:24.319Z,101716.69
2023-12-02T17:26:54.605Z,101727.88
2023-12-02T17:29:26.740Z,101724.34
2023-12-02T17:31:57.556Z,101737.13
2023-12-02T17:34:25.052Z,101733.59
2023-12-02T17:36:52.961Z,101738.66
2023-12-02T17:39:20.070Z,101734.31
2023-12-02T17:41:48.498Z,101742.00
2023-12-02T17:44:19.086Z,101736.91
2023-12-02T17:46:47.387Z,101738.56
2023-12-02T17:49:14.827Z,101750.72
2023-12-02T17:51:42.345Z,101742.09
2023-12-02T17:54:09.172Z,101744.69
2023-12-02T17:56:36.933Z,101749.03
2023-12-02T17:59:03.501Z,101753.50
2023-12-02T18:01:30.181Z,101752.75
2023-12-02T18:03:57.550Z,101749.34
2023-12-02T18:06:24.253Z,101752.97
2023-12-02T18:08:52.384Z,101756.41
2023-12-02T18:11:19.597Z,101759.06
2023-12-02T18:13:46.153Z,101758.25
2023-12-02T18:16:12.950Z,101762.41
2023-12-02T18:18:39.567Z,101751.22
2023-12-02T18:21:06.542Z,101753.69
2023-12-02T18:23:33.186Z,101747.56
2023-12-02T18:25:59.733Z,101751.00
2023-12-02T18:28:26.348Z,101751.84
2023-12-02T18:30:52.954Z,101744.78
2023-12-02T18:33:20.578Z,101748.19
2023-12-02T18:35:47.445Z,101744.78
2023-12-02T18:38:14.111Z,101752.66
2023-12-02T18:40:41.137Z,101750.16
2023-12-02T18:43:07.856Z,101743.53
2023-12-02T18:45:34.530Z,101733.47
2023-12-02T18:48:01.872Z,101739.78
2023-12-02T18:50:28.551Z,101745.91
2023-12-02T18:52:55.044Z,101745.34
2023-12-02T18:55:21.727Z,101748.06
2023-12-02T18:57:48.324Z,101752.63
2023-12-02T19:00:15.700Z,101746.78
2023-12-02T19:02:42.312Z,101742.63
2023-12-02T19:05:09.102Z,101744.41
2023-12-02T19:07:35.754Z,101748.13
2023-12-02T19:10:03.269Z,101750.81
2023-12-02T19:12:30.310Z,101753.69
2023-12-02T19:14:57.052Z,101760.00
2023-12-02T19:17:23.953Z,101760.31
2023-12-02T19:19:50.772Z,101763.09
2023-12-02T19:22:17.530Z,101765.03
2023-12-02T19:24:44.302Z,101760.78
2023-12-02T19:27:11.176Z,101757.38
2023-12-02T19:29:37.737Z,101759.84
2023-12-02T19:32:06.780Z,101760.88
2023-12-02T19:34:33.512Z,101764.50
2023-12-02T19:37:02.631Z,101765.34
2023-12-02T19:39:30.260Z,101774.03
2023-12-02T19:41:57.073Z,101773.28
2023-12-02T19:44:23.782Z,101771.63
2023-12-02T19:46:57.288Z,101774.22
2023-12-02T19:49:25.023Z,101785.41
2023-12-02T19:51:51.813Z,101783.66
2023-12-02T19:54:18.744Z,101780.13
2023-12-02T19:56:49.849Z,101790.41
2023-12-02T19:59:17.550Z,101795.59
2023-12-02T20:01:44.200Z,101801.47
2023-12-02T20:04:11.517Z,101802.13
2023-12-02T20:06:38.141Z,101800.19
2023-12-02T20:09:04.842Z,101812.00
2023-12-02T20:11:44.160Z,101812.75
2023-12-02T20:14:12.519Z,101817.81
2023-12-02T20:16:39.790Z,101812.56
2023-12-02T20:19:06.542Z,101817.56
2023-12-02T20:21:33.296Z,101819.41
2023-12-02T20:23:59.949Z,101816.81
2023-12-02T20:26:26.495Z,101824.47
2023-12-02T20:28:53.247Z,101829.56
2023-12-02T20:31:19.708Z,101832.16
2023-12-02T20:33:46.417Z,101829.56
2023-12-02T20:36:13.962Z,101844.47
2023-12-02T20:38:40.649Z,101840.31
2023-12-02T20:41:07.758Z,101844.47
2023-12-02T20:43:38.215Z,101846.25
2023-12-02T20:46:06.790Z,101844.38
2023-12-02T20:48:37.034Z,101845.50
2023-12-02T20:51:05.849Z,101854.09
2023-12-02T20:53:32.686Z,101851.50
2023-12-02T20:55:59.364Z,101849.84
2023-12-02T20:58:26.302Z,101842.28
2023-12-02T21:00:53.066Z,101841.72
2023-12-02T21:03:19.631Z,101851.28
2023-12-02T21:05:46.471Z,101849.50
2023-12-02T21:08:13.594Z,101845.16
2023-12-02T21:10:40.539Z,101849.50
2023-12-02T21:13:08.182Z,101844.31
2023-12-02T21:15:42.871Z,101849.50
2023-12-02T21:18:11.888Z,101848.56
2023-12-02T21:20:39.052Z,101845.97
2023-12-02T21:23:05.726Z,101844.31
2023-12-02T21:25:32.586Z,101835.63
2023-12-02T21:27:59.185Z,101840.97
2023-12-02T21:30:42.963Z,101834.16
2023-12-02T21:33:13.881Z,101830.81
2023-12-02T21:35:41.988Z,101842.94
2023-12-02T21:38:29.230Z,101839.50
2023-12-02T21:40:55.750Z,101846.47
2023-12-02T21:43:22.272Z,101843.75
2023-12-02T21:45:51.522Z,101847.09
2023-12-02T21:48:45.276Z,101848.56
2023-12-02T21:51:23.869Z,101840.69
2023-12-02T21:53:53.233Z,101839.59
2023-12-02T21:56:20.032Z,101847.06
2023-12-02T21:59:09.804Z,101848.66
2023-12-02T22:01:41.093Z,101850.13
2023-12-02T22:04:13.554Z,101845.56
2023-12-02T22:06:51.408Z,101848.81
2023-12-02T22:09:27.050Z,101847.88
2023-12-02T22:11:55.745Z,101851.09
2023-12-02T22:14:24.214Z,101854.41
2023-12-02T22:16:57.487Z,101843.13
2023-12-02T22:19:24.433Z,101842.19
2023-12-02T22:21:52.811Z,101849.88
2023-12-02T22:24:19.442Z,101850.72
2023-12-02T22:26:46.289Z,101845.31
2023-12-02T22:29:25.078Z,101854.78
2023-12-02T22:31:52.214Z,101855.59
2023-12-02T22:34:19.337Z,101857.25
2023-12-02T22:36:47.580Z,101857.16
2023-12-02T22:39:25.181Z,101858.84
2023-12-02T22:41:53.705Z,101872.63
2023-12-02T22:44:21.485Z,101873.44
2023-12-02T22:46:57.170Z,101870.84
2023-12-02T22:49:28.027Z,101874.28
2023-12-02T22:51:57.660Z,101870.03
2023-12-02T22:54:37.785Z,101878.63
2023-12-02T22:57:05.047Z,101883.00
2023-12-02T22:59:31.651Z,101889.84
2023-12-02T23:01:58.263Z,101889.75
2023-12-02T23:04:39.585Z,101874.19
2023-12-02T23:07:11.914Z,101897.44
2023-12-02T23:09:43.302Z,101888.81
2023-12-02T23:12:36.462Z,101900.84
2023-12-02T23:15:03.333Z,101899.91
2023-12-02T23:17:31.472Z,101904.91
2023-12-02T23:20:03.662Z,101916.94
2023-12-02T23:22:30.404Z,101909.16
2023-12-02T23:24:56.956Z,101922.88
2023-12-02T23:27:39.748Z,101923.69
2023-12-02T23:30:15.323Z,101922.75
2023-12-02T23:32:42.069Z,101926.09
2023-12-02T23:35:09.032Z,101922.56
2023-12-02T23:37:35.586Z,101924.25
2023-12-02T23:40:02.379Z,101918.13
2023-12-02T23:42:41.181Z,101927.56
2023-12-02T23:45:08.833Z,101921.44
2023-12-02T23:47:36.261Z,101918.84
2023-12-02T23:50:03.827Z,101925.72
2023-12-02T23:52:30.471Z,101925.59
2023-12-02T23:54:57.030Z,101926.53
2023-12-02T23:57:24.466Z,101929.84
2023-12-02T23:59:51.611Z,101927.25
